Time;durP1;ratioP1;P1;durP2;ratioP2;P2;SDS_P1;SDS_P2;PMS_P1;PMS_P2;Temp;Humidity;BMP_temperature;BMP_pressure;BME280_temperature;BME280_humidity;BME280_pressure;Samples;Min_cycle;Max_cycle;Signal;HPM_P1;HPM_P2
2021/03/17 00:02:00;;;;;;;43.78;41.03;;;;;;;;;;5031402;28;20041;-74
2021/03/17 00:04:27;;;;;;;38.33;36.22;;;;;;;;;;5026050;28;20091;-74
2021/03/17 00:06:54;;;;;;;41.53;39.22;;;;;;;;;;5042879;28;20029;-74
2021/03/17 00:09:21;;;;;;;41.20;39.30;;;;;;;;;;5037118;28;20041;-74
2021/03/17 00:11:48;;;;;;;38.35;36.53;;;;;;;;;;5027141;28;20062;-74
2021/03/17 00:14:15;;;;;;;42.17;40.22;;;;;;;;;;5046622;28;20037;-74
2021/03/17 00:16:42;;;;;;;44.13;41.90;;;;;;;;;;5049448;28;20045;-74
2021/03/17 00:19:10;;;;;;;44.22;42.08;;;;;;;;;;5032093;28;20025;-74
2021/03/17 00:21:37;;;;;;;42.58;40.58;;;;;;;;;;5031514;28;20041;-74
2021/03/17 00:24:04;;;;;;;39.88;37.83;;;;;;;;;;5048664;28;20033;-74
2021/03/17 00:26:31;;;;;;;44.47;41.92;;;;;;;;;;5052984;28;20067;-74
2021/03/17 00:28:58;;;;;;;44.13;41.85;;;;;;;;;;5032122;28;20033;-74
2021/03/17 00:31:25;;;;;;;56.42;52.15;;;;;;;;;;5028717;28;20041;-74
2021/03/17 00:33:52;;;;;;;51.60;47.95;;;;;;;;;;5035910;28;20040;-74
2021/03/17 00:36:19;;;;;;;48.20;45.45;;;;;;;;;;5048991;28;20037;-74
2021/03/17 00:38:46;;;;;;;47.72;44.78;;;;;;;;;;5033113;28;20095;-74
2021/03/17 00:41:14;;;;;;;44.13;41.75;;;;;;;;;;5053270;28;20045;-74
2021/03/17 00:43:41;;;;;;;41.40;39.20;;;;;;;;;;5012796;28;20039;-74
2021/03/17 00:46:09;;;;;;;45.28;42.50;;;;;;;;;;5008882;28;20037;-75
2021/03/17 00:48:45;;;;;;;46.15;43.58;;;;;;;;;;5034128;28;20049;-75
2021/03/17 00:51:13;;;;;;;44.95;42.25;;;;;;;;;;5032234;28;20053;-75
2021/03/17 00:53:40;;;;;;;42.85;40.58;;;;;;;;;;5038535;28;20068;-75
2021/03/17 00:56:08;;;;;;;45.13;42.67;;;;;;;;;;5047288;28;20373;-75
2021/03/17 00:58:36;;;;;;;44.97;42.90;;;;;;;;;;5034082;28;20082;-74
2021/03/17 01:01:04;;;;;;;42.75;40.47;;;;;;;;;;5035255;28;20128;-74
2021/03/17 01:03:31;;;;;;;40.17;38.58;;;;;;;;;;5050026;28;20056;-74
2021/03/17 01:05:58;;;;;;;39.13;37.60;;;;;;;;;;5044651;28;20134;-74
2021/03/17 01:08:26;;;;;;;39.45;37.88;;;;;;;;;;5046805;28;20044;-74
2021/03/17 01:10:53;;;;;;;40.35;38.53;;;;;;;;;;5018470;28;20055;-74
2021/03/17 01:13:20;;;;;;;37.63;35.80;;;;;;;;;;5028469;28;20149;-74
2021/03/17 01:15:47;;;;;;;36.90;35.60;;;;;;;;;;5031384;28;20083;-74
2021/03/17 01:18:14;;;;;;;38.03;36.50;;;;;;;;;;5051614;28;20041;-74
2021/03/17 01:20:41;;;;;;;38.00;36.58;;;;;;;;;;5029296;28;20065;-74
2021/03/17 01:23:09;;;;;;;39.08;37.40;;;;;;;;;;5032073;28;20041;-74
2021/03/17 01:25:38;;;;;;;42.45;40.75;;;;;;;;;;5050427;28;20041;-74
2021/03/17 01:28:07;;;;;;;42.28;40.30;;;;;;;;;;5017583;28;20071;-74
2021/03/17 01:30:37;;;;;;;42.65;40.75;;;;;;;;;;5035739;28;20102;-74
2021/03/17 01:33:04;;;;;;;38.65;36.75;;;;;;;;;;5017985;28;20133;-74
2021/03/17 01:35:32;;;;;;;43.13;41.08;;;;;;;;;;5013188;28;20079;-74
2021/03/17 01:37:59;;;;;;;45.83;43.00;;;;;;;;;;5033495;28;20151;-74
2021/03/17 01:40:27;;;;;;;41.97;39.75;;;;;;;;;;5027965;28;20045;-74
2021/03/17 01:42:55;;;;;;;42.58;40.42;;;;;;;;;;5032082;28;20044;-74
2021/03/17 01:45:22;;;;;;;41.15;39.25;;;;;;;;;;5015106;28;20057;-74
2021/03/17 01:47:50;;;;;;;44.08;42.08;;;;;;;;;;5048058;28;20041;-74
2021/03/17 01:50:22;;;;;;;42.15;40.03;;;;;;;;;;5033484;28;20045;-74
2021/03/17 01:52:50;;;;;;;45.67;43.38;;;;;;;;;;5044888;28;20041;-74
2021/03/17 01:55:18;;;;;;;43.03;41.08;;;;;;;;;;5030996;28;20144;-74
2021/03/17 01:57:45;;;;;;;42.38;40.53;;;;;;;;;;5049961;28;20040;-74
2021/03/17 02:00:14;;;;;;;45.50;43.28;;;;;;;;;;5028695;28;20579;-74
2021/03/17 02:02:42;;;;;;;41.95;39.95;;;;;;;;;;5045596;28;20071;-74
2021/03/17 02:05:12;;;;;;;43.10;41.22;;;;;;;;;;5027907;28;20479;-74
2021/03/17 02:07:39;;;;;;;37.95;36.22;;;;;;;;;;5029571;28;20056;-74
2021/03/17 02:10:10;;;;;;;45.00;43.10;;;;;;;;;;5028279;28;20033;-74
2021/03/17 02:12:38;;;;;;;44.38;42.08;;;;;;;;;;5043373;28;20108;-74
2021/03/17 02:15:15;;;;;;;45.60;43.60;;;;;;;;;;5042764;28;20565;-74
2021/03/17 02:17:43;;;;;;;46.97;44.28;;;;;;;;;;5026219;28;20075;-75
2021/03/17 02:20:29;;;;;;;45.85;43.75;;;;;;;;;;5044235;28;20033;-74
2021/03/17 02:23:09;;;;;;;44.53;42.15;;;;;;;;;;5047010;28;20482;-74
2021/03/17 02:25:48;;;;;;;47.38;45.20;;;;;;;;;;5039436;28;20119;-74
2021/03/17 02:28:25;;;;;;;43.47;41.38;;;;;;;;;;5023310;28;20056;-75
2021/03/17 02:31:07;;;;;;;43.00;41.13;;;;;;;;;;5023063;28;20452;-74
2021/03/17 02:33:53;;;;;;;46.78;44.55;;;;;;;;;;5035448;28;20049;-74
2021/03/17 02:36:20;;;;;;;46.80;44.53;;;;;;;;;;5047699;28;20125;-74
2021/03/17 02:38:50;;;;;;;45.05;42.95;;;;;;;;;;5032938;28;20505;-74
2021/03/17 02:41:20;;;;;;;45.13;43.22;;;;;;;;;;5047264;28;20095;-74
2021/03/17 02:43:49;;;;;;;41.97;39.95;;;;;;;;;;5032784;28;20522;-74
2021/03/17 02:46:16;;;;;;;45.10;42.83;;;;;;;;;;5034091;28;20127;-74
2021/03/17 02:48:45;;;;;;;42.58;40.75;;;;;;;;;;5016121;28;20072;-74
2021/03/17 02:51:35;;;;;;;42.30;40.50;;;;;;;;;;5047160;28;20049;-74
2021/03/17 02:54:02;;;;;;;43.58;41.63;;;;;;;;;;5041330;28;20060;-74
2021/03/17 02:56:31;;;;;;;43.47;41.58;;;;;;;;;;5048584;28;20044;-73
2021/03/17 02:58:59;;;;;;;41.78;39.70;;;;;;;;;;5051184;28;20673;-73
2021/03/17 03:01:28;;;;;;;42.03;40.10;;;;;;;;;;5045410;28;20037;-74
2021/03/17 03:03:56;;;;;;;45.30;43.30;;;;;;;;;;5047047;28;20526;-74
2021/03/17 03:06:24;;;;;;;45.70;43.00;;;;;;;;;;5022933;28;20139;-74
2021/03/17 03:08:52;;;;;;;45.15;43.17;;;;;;;;;;5028129;28;20110;-74
2021/03/17 03:11:19;;;;;;;44.38;42.47;;;;;;;;;;5031194;28;20525;-74
2021/03/17 03:13:46;;;;;;;40.50;38.70;;;;;;;;;;5046983;28;20041;-74
2021/03/17 03:16:14;;;;;;;42.38;40.67;;;;;;;;;;5028246;28;20095;-74
2021/03/17 03:18:43;;;;;;;43.25;41.55;;;;;;;;;;5027528;28;20075;-74
2021/03/17 03:21:11;;;;;;;46.03;44.17;;;;;;;;;;5025587;28;20491;-74
2021/03/17 03:23:38;;;;;;;41.30;39.42;;;;;;;;;;5008513;28;20041;-74
2021/03/17 03:26:06;;;;;;;43.25;41.40;;;;;;;;;;5013529;28;20048;-74
2021/03/17 03:28:34;;;;;;;43.80;41.60;;;;;;;;;;5028549;28;20033;-74
2021/03/17 03:31:01;;;;;;;44.83;42.67;;;;;;;;;;5039569;28;20556;-74
2021/03/17 03:33:28;;;;;;;42.83;40.60;;;;;;;;;;5027442;28;20041;-74
2021/03/17 03:35:55;;;;;;;43.80;41.70;;;;;;;;;;5010338;28;20080;-74
2021/03/17 03:38:23;;;;;;;42.95;41.00;;;;;;;;;;5030433;28;20102;-74
2021/03/17 03:40:50;;;;;;;44.10;41.80;;;;;;;;;;5046354;28;20127;-74
2021/03/17 03:43:17;;;;;;;43.75;41.70;;;;;;;;;;5016125;28;20045;-74
2021/03/17 03:45:45;;;;;;;46.75;44.75;;;;;;;;;;5026464;28;20694;-74
2021/03/17 03:48:13;;;;;;;43.50;41.20;;;;;;;;;;5031374;28;20128;-74
2021/03/17 03:50:45;;;;;;;46.30;44.05;;;;;;;;;;5022778;28;20042;-74
2021/03/17 03:53:24;;;;;;;43.60;41.67;;;;;;;;;;5041779;28;20448;-74
2021/03/17 03:55:52;;;;;;;43.97;41.72;;;;;;;;;;5025106;28;20104;-74
2021/03/17 03:58:23;;;;;;;44.70;42.40;;;;;;;;;;5037426;28;20052;-74
2021/03/17 04:00:51;;;;;;;45.17;42.83;;;;;;;;;;5040155;28;20053;-74
2021/03/17 04:03:18;;;;;;;47.55;45.05;;;;;;;;;;5042942;28;20487;-74
2021/03/17 04:05:46;;;;;;;44.80;42.90;;;;;;;;;;5042276;28;20087;-74
2021/03/17 04:08:19;;;;;;;44.03;42.13;;;;;;;;;;5049767;28;20103;-74
2021/03/17 04:10:52;;;;;;;41.65;39.65;;;;;;;;;;5043494;28;20041;-75
2021/03/17 04:13:19;;;;;;;43.22;41.60;;;;;;;;;;5041369;28;20049;-74
2021/03/17 04:15:46;;;;;;;42.17;40.17;;;;;;;;;;5032544;28;20052;-74
2021/03/17 04:18:15;;;;;;;49.60;46.75;;;;;;;;;;5012131;28;20052;-74
2021/03/17 04:20:45;;;;;;;44.00;41.90;;;;;;;;;;5028491;28;20109;-74
2021/03/17 04:23:13;;;;;;;45.97;43.88;;;;;;;;;;5031875;28;20068;-74
2021/03/17 04:25:42;;;;;;;40.95;38.97;;;;;;;;;;5027714;28;20069;-74
2021/03/17 04:28:11;;;;;;;45.60;43.25;;;;;;;;;;5049582;28;20091;-74
2021/03/17 04:30:39;;;;;;;43.63;41.55;;;;;;;;;;5046984;28;20098;-74
2021/03/17 04:33:06;;;;;;;48.40;46.22;;;;;;;;;;5045987;28;20120;-74
2021/03/17 04:35:33;;;;;;;46.53;44.42;;;;;;;;;;5024590;28;20128;-74
2021/03/17 04:38:01;;;;;;;45.90;43.70;;;;;;;;;;5026624;28;20095;-74
2021/03/17 04:40:29;;;;;;;43.47;41.60;;;;;;;;;;5028350;28;20139;-74
2021/03/17 04:42:58;;;;;;;47.00;45.05;;;;;;;;;;5031546;28;20159;-74
2021/03/17 04:45:25;;;;;;;48.45;46.35;;;;;;;;;;5047897;28;20091;-74
2021/03/17 04:47:53;;;;;;;47.63;45.45;;;;;;;;;;5036945;28;20033;-74
2021/03/17 04:50:25;;;;;;;47.40;44.88;;;;;;;;;;5035370;28;20033;-74
2021/03/17 04:52:53;;;;;;;43.38;41.47;;;;;;;;;;5049153;28;20087;-74
2021/03/17 04:55:20;;;;;;;47.53;45.03;;;;;;;;;;5039496;28;20037;-74
2021/03/17 04:57:47;;;;;;;48.08;45.75;;;;;;;;;;5028754;28;20082;-74
2021/03/17 05:00:17;;;;;;;46.80;44.72;;;;;;;;;;5054002;28;20124;-74
2021/03/17 05:02:58;;;;;;;43.55;41.55;;;;;;;;;;5049569;28;20413;-74
2021/03/17 05:05:29;;;;;;;52.90;49.55;;;;;;;;;;5045935;28;20557;-74
2021/03/17 05:07:57;;;;;;;54.08;50.03;;;;;;;;;;5030954;28;20049;-74
2021/03/17 05:10:25;;;;;;;49.53;46.25;;;;;;;;;;5016930;28;20140;-74
2021/03/17 05:12:53;;;;;;;50.90;47.92;;;;;;;;;;5017973;28;20485;-74
2021/03/17 05:15:21;;;;;;;48.75;46.08;;;;;;;;;;5022968;28;20107;-74
2021/03/17 05:17:49;;;;;;;44.17;41.50;;;;;;;;;;5024672;28;20029;-74
2021/03/17 05:20:19;;;;;;;45.83;43.38;;;;;;;;;;5020804;28;20045;-74
2021/03/17 05:22:47;;;;;;;50.90;48.00;;;;;;;;;;5028926;28;20037;-74
2021/03/17 05:25:15;;;;;;;50.28;47.67;;;;;;;;;;5032020;28;20045;-74
2021/03/17 05:27:43;;;;;;;51.40;48.53;;;;;;;;;;5033038;28;20433;-74
2021/03/17 05:30:11;;;;;;;50.83;47.47;;;;;;;;;;5029331;28;20124;-74
2021/03/17 05:32:41;;;;;;;49.30;46.75;;;;;;;;;;5038573;28;20065;-74
2021/03/17 05:35:09;;;;;;;50.08;46.95;;;;;;;;;;5028790;28;20045;-74
2021/03/17 05:37:37;;;;;;;58.90;54.20;;;;;;;;;;5050280;28;20041;-74
2021/03/17 05:40:08;;;;;;;48.28;45.75;;;;;;;;;;5051795;28;20045;-74
2021/03/17 05:42:37;;;;;;;43.85;41.95;;;;;;;;;;5042483;28;20498;-74
2021/03/17 05:45:08;;;;;;;44.95;42.75;;;;;;;;;;5036521;28;20029;-74
2021/03/17 05:47:37;;;;;;;44.55;42.25;;;;;;;;;;5032910;28;20041;-75
2021/03/17 05:50:06;;;;;;;43.28;41.25;;;;;;;;;;5030270;28;20110;-74
2021/03/17 05:52:33;;;;;;;50.78;47.80;;;;;;;;;;5047322;28;20045;-74
2021/03/17 05:55:01;;;;;;;50.13;46.67;;;;;;;;;;5030452;28;20037;-74
2021/03/17 05:57:28;;;;;;;47.80;45.72;;;;;;;;;;5031929;28;20037;-74
2021/03/17 05:59:56;;;;;;;48.28;45.72;;;;;;;;;;5051793;28;20119;-74
2021/03/17 06:02:23;;;;;;;48.83;46.13;;;;;;;;;;5046089;28;20037;-74
2021/03/17 06:04:51;;;;;;;47.70;45.60;;;;;;;;;;5049836;28;20124;-74
2021/03/17 06:07:23;;;;;;;46.67;44.33;;;;;;;;;;5051544;28;20075;-74
2021/03/17 06:09:53;;;;;;;47.63;45.42;;;;;;;;;;5029665;28;20045;-74
2021/03/17 06:12:21;;;;;;;48.30;46.13;;;;;;;;;;5051263;28;20644;-74
2021/03/17 06:14:50;;;;;;;47.03;44.50;;;;;;;;;;5016004;28;20044;-74
2021/03/17 06:17:23;;;;;;;45.20;43.30;;;;;;;;;;5051600;28;20056;-74
2021/03/17 06:19:56;;;;;;;44.83;43.08;;;;;;;;;;5047574;28;20127;-74
2021/03/17 06:22:23;;;;;;;40.60;39.03;;;;;;;;;;5028707;28;20088;-76
2021/03/17 06:24:50;;;;;;;40.38;39.00;;;;;;;;;;5033341;28;20049;-77
2021/03/17 06:27:17;;;;;;;41.03;39.30;;;;;;;;;;5016281;28;20690;-77
2021/03/17 06:29:44;;;;;;;42.50;40.65;;;;;;;;;;5047551;28;20539;-77
2021/03/17 06:32:11;;;;;;;49.05;46.72;;;;;;;;;;5050923;28;20473;-77
2021/03/17 06:34:49;;;;;;;81.90;73.60;;;;;;;;;;5028120;28;20041;-77
2021/03/17 06:37:17;;;;;;;53.53;50.40;;;;;;;;;;5031850;28;20485;-77
2021/03/17 06:39:44;;;;;;;41.45;39.83;;;;;;;;;;5044965;28;20032;-77
2021/03/17 06:42:11;;;;;;;42.08;40.28;;;;;;;;;;5028976;28;20041;-77
2021/03/17 06:44:39;;;;;;;39.10;37.90;;;;;;;;;;5017588;28;20068;-77
2021/03/17 06:47:18;;;;;;;42.30;41.00;;;;;;;;;;5026694;28;20044;-77
2021/03/17 06:49:47;;;;;;;59.53;55.83;;;;;;;;;;5047772;28;20049;-77
2021/03/17 06:52:33;;;;;;;52.63;49.70;;;;;;;;;;5049485;28;20170;-77
2021/03/17 06:55:14;;;;;;;46.80;44.40;;;;;;;;;;5009472;28;20067;-77
2021/03/17 06:57:42;;;;;;;43.42;41.33;;;;;;;;;;5048706;28;20425;-77
2021/03/17 07:00:23;;;;;;;51.42;48.67;;;;;;;;;;5047724;28;20090;-77
2021/03/17 07:02:58;;;;;;;43.88;42.05;;;;;;;;;;5028489;28;20037;-78
2021/03/17 07:05:32;;;;;;;40.08;38.47;;;;;;;;;;5049288;28;20030;-78
2021/03/17 07:08:00;;;;;;;39.65;38.30;;;;;;;;;;5039218;28;20072;-78
2021/03/17 07:10:28;;;;;;;49.72;47.25;;;;;;;;;;5027170;28;20037;-78
2021/03/17 07:12:56;;;;;;;38.63;37.17;;;;;;;;;;5051235;28;20060;-78
2021/03/17 07:15:23;;;;;;;30.73;29.13;;;;;;;;;;5029194;28;20048;-79
2021/03/17 07:17:52;;;;;;;32.28;30.75;;;;;;;;;;5030717;28;20493;-79
2021/03/17 07:20:36;;;;;;;37.05;35.45;;;;;;;;;;5027868;28;20045;-79
2021/03/17 07:23:22;;;;;;;20.73;19.95;;;;;;;;;;5022905;28;20083;-79
2021/03/17 07:26:07;;;;;;;16.80;16.00;;;;;;;;;;5031272;28;20102;-79
2021/03/17 07:28:53;;;;;;;13.15;12.73;;;;;;;;;;5033451;28;20478;-79
2021/03/17 07:31:22;;;;;;;15.43;14.77;;;;;;;;;;5042611;28;20095;-79
2021/03/17 07:33:51;;;;;;;18.15;17.17;;;;;;;;;;5022527;28;20069;-78
2021/03/17 07:36:31;;;;;;;16.85;15.75;;;;;;;;;;5029890;28;20131;-78
2021/03/17 07:38:59;;;;;;;15.52;14.82;;;;;;;;;;5027984;28;20065;-78
2021/03/17 07:41:26;;;;;;;13.68;13.15;;;;;;;;;;5049611;28;20068;-78
2021/03/17 07:43:54;;;;;;;13.82;13.43;;;;;;;;;;5046337;28;20068;-78
2021/03/17 07:46:24;;;;;;;12.38;11.82;;;;;;;;;;5048897;28;20114;-78
2021/03/17 07:48:59;;;;;;;11.20;10.90;;;;;;;;;;5018544;28;20494;-79
2021/03/17 07:51:26;;;;;;;11.25;10.88;;;;;;;;;;5044476;28;20111;-79
2021/03/17 07:53:54;;;;;;;12.35;11.48;;;;;;;;;;5050283;28;20053;-79
2021/03/17 07:56:33;;;;;;;;;;;;;;;;;;;;;
2021/03/17 07:59:01;;;;;;;12.98;12.43;;;;;;;;;;4977826;28;20061;-79
2021/03/17 08:01:28;;;;;;;16.83;15.25;;;;;;;;;;5031685;28;20443;-79
2021/03/17 08:03:56;;;;;;;11.82;11.30;;;;;;;;;;5043269;28;20045;-79
2021/03/17 08:06:23;;;;;;;12.35;11.65;;;;;;;;;;5023924;28;20129;-79
2021/03/17 08:08:50;;;;;;;11.27;11.07;;;;;;;;;;5047226;28;20432;-79
2021/03/17 08:11:19;;;;;;;12.00;11.50;;;;;;;;;;5026989;28;20474;-79
2021/03/17 08:13:48;;;;;;;9.95;9.48;;;;;;;;;;5050426;28;20045;-79
2021/03/17 08:16:20;;;;;;;10.60;10.40;;;;;;;;;;5027402;28;20072;-79
2021/03/17 08:18:49;;;;;;;11.15;10.85;;;;;;;;;;5048589;28;20037;-79
2021/03/17 08:21:37;;;;;;;9.57;9.35;;;;;;;;;;5051085;28;20068;-79
2021/03/17 08:24:04;;;;;;;11.23;10.52;;;;;;;;;;5020943;28;20085;-79
2021/03/17 08:26:31;;;;;;;10.32;9.73;;;;;;;;;;5018613;28;20069;-79
2021/03/17 08:28:58;;;;;;;11.13;10.65;;;;;;;;;;5051889;28;20041;-79
2021/03/17 08:31:37;;;;;;;7.57;7.45;;;;;;;;;;5030070;28;20037;-79
2021/03/17 08:34:24;;;;;;;7.72;7.32;;;;;;;;;;5038208;28;20134;-79
2021/03/17 08:37:01;;;;;;;7.15;7.05;;;;;;;;;;5049789;28;20037;-79
2021/03/17 08:39:35;;;;;;;6.72;6.50;;;;;;;;;;5031867;28;20478;-79
2021/03/17 08:42:20;;;;;;;6.38;6.28;;;;;;;;;;5051808;28;20087;-79
2021/03/17 08:44:48;;;;;;;5.55;5.45;;;;;;;;;;5031785;28;20102;-79
2021/03/17 08:47:15;;;;;;;7.95;7.65;;;;;;;;;;5048825;28;20044;-79
2021/03/17 08:49:43;;;;;;;6.72;6.53;;;;;;;;;;5031790;28;20091;-79
2021/03/17 08:52:15;;;;;;;8.13;7.93;;;;;;;;;;5047074;28;20069;-79
2021/03/17 08:54:45;;;;;;;6.57;6.47;;;;;;;;;;5051564;28;20063;-79
2021/03/17 08:57:14;;;;;;;7.43;6.85;;;;;;;;;;5020040;28;20053;-79
2021/03/17 08:59:41;;;;;;;5.35;5.20;;;;;;;;;;5031934;28;20037;-79
2021/03/17 09:02:19;;;;;;;6.35;6.25;;;;;;;;;;5035872;28;20037;-79
2021/03/17 09:04:46;;;;;;;6.82;6.25;;;;;;;;;;5031219;28;20045;-79
2021/03/17 09:07:14;;;;;;;7.60;7.20;;;;;;;;;;5051985;28;20063;-79
2021/03/17 09:09:51;;;;;;;6.88;6.78;;;;;;;;;;5033855;28;20072;-79
2021/03/17 09:12:21;;;;;;;3.97;3.92;;;;;;;;;;5018556;28;20135;-79
2021/03/17 09:14:48;;;;;;;4.10;3.90;;;;;;;;;;5050399;28;20083;-79
2021/03/17 09:17:17;;;;;;;5.68;5.50;;;;;;;;;;5016014;28;20145;-79
2021/03/17 09:19:54;;;;;;;5.13;5.00;;;;;;;;;;5041662;28;20044;-79
2021/03/17 09:22:32;;;;;;;4.45;4.28;;;;;;;;;;5036517;28;20478;-80
2021/03/17 09:24:59;;;;;;;4.80;4.70;;;;;;;;;;5030970;28;20037;-80
2021/03/17 09:27:26;;;;;;;3.75;3.75;;;;;;;;;;5047916;28;20064;-80
2021/03/17 09:30:06;;;;;;;3.85;3.47;;;;;;;;;;5033550;28;20048;-80
2021/03/17 09:32:33;;;;;;;4.13;3.90;;;;;;;;;;5047393;28;20170;-80
2021/03/17 09:35:00;;;;;;;5.15;4.90;;;;;;;;;;5033896;28;20693;-80
2021/03/17 09:37:27;;;;;;;4.22;4.07;;;;;;;;;;5035355;28;20052;-80
2021/03/17 09:39:55;;;;;;;3.30;3.03;;;;;;;;;;5029422;28;20044;-80
2021/03/17 09:42:22;;;;;;;3.25;3.22;;;;;;;;;;5051238;28;20037;-80
2021/03/17 09:44:57;;;;;;;2.10;2.10;;;;;;;;;;5046911;28;20049;-80
2021/03/17 09:47:24;;;;;;;;;;;;;;;;;;5031392;28;20103;-80
2021/03/17 09:49:51;;;;;;;2.53;2.40;;;;;;;;;;5034266;28;19924;-80
2021/03/17 09:52:18;;;;;;;2.30;2.20;;;;;;;;;;5028989;28;20043;-80
2021/03/17 09:54:45;;;;;;;2.45;2.45;;;;;;;;;;5052444;28;20579;-80
2021/03/17 09:57:12;;;;;;;2.20;2.00;;;;;;;;;;5049062;28;20053;-80
2021/03/17 09:59:41;;;;;;;3.85;3.75;;;;;;;;;;5046784;28;20087;-80
2021/03/17 10:02:27;;;;;;;2.65;2.55;;;;;;;;;;5034332;28;20049;-80
2021/03/17 10:04:54;;;;;;;2.47;2.38;;;;;;;;;;5030290;28;20033;-80
2021/03/17 10:07:22;;;;;;;2.17;2.17;;;;;;;;;;5040058;28;20040;-80
2021/03/17 10:09:49;;;;;;;2.10;2.00;;;;;;;;;;5032107;28;20095;-80
2021/03/17 10:12:22;;;;;;;1.40;1.40;;;;;;;;;;5030533;28;20041;-80
2021/03/17 10:14:55;;;;;;;1.40;1.40;;;;;;;;;;5036422;28;20040;-80
2021/03/17 10:17:24;;;;;;;6.22;5.85;;;;;;;;;;5039355;28;20053;-80
2021/03/17 10:19:53;;;;;;;1.90;1.90;;;;;;;;;;5023729;28;20505;-80
2021/03/17 10:22:21;;;;;;;1.40;1.40;;;;;;;;;;5052101;28;20049;-80
2021/03/17 10:24:50;;;;;;;1.42;1.42;;;;;;;;;;5047606;28;20033;-80
2021/03/17 10:27:27;;;;;;;1.30;1.30;;;;;;;;;;5033520;28;20041;-80
2021/03/17 10:29:59;;;;;;;1.42;1.30;;;;;;;;;;5034805;28;20049;-80
2021/03/17 10:32:27;;;;;;;1.30;1.30;;;;;;;;;;5046672;28;20048;-80
2021/03/17 10:34:55;;;;;;;1.27;1.27;;;;;;;;;;5035316;28;20060;-80
2021/03/17 10:37:22;;;;;;;1.60;1.60;;;;;;;;;;5028893;28;20528;-80
2021/03/17 10:39:51;;;;;;;1.70;1.70;;;;;;;;;;5031923;28;20097;-80
2021/03/17 10:42:24;;;;;;;1.98;1.98;;;;;;;;;;5031738;28;20565;-80
2021/03/17 10:44:52;;;;;;;;;;;;;;;;;;5027303;28;20040;-80
2021/03/17 10:47:25;;;;;;;1.92;1.17;;;;;;;;;;5032011;28;19925;-80
2021/03/17 10:49:52;;;;;;;1.30;1.30;;;;;;;;;;5046217;28;20098;-80
2021/03/17 10:52:19;;;;;;;1.38;1.38;;;;;;;;;;5049360;28;20068;-80
2021/03/17 10:54:46;;;;;;;1.58;1.58;;;;;;;;;;5017542;28;20068;-80
2021/03/17 10:57:23;;;;;;;1.38;1.38;;;;;;;;;;5047057;28;20033;-80
2021/03/17 10:59:51;;;;;;;1.75;1.63;;;;;;;;;;5030937;28;20506;-80
2021/03/17 11:02:28;;;;;;;1.10;1.10;;;;;;;;;;5047895;28;20108;-80
2021/03/17 11:05:14;;;;;;;1.63;1.63;;;;;;;;;;5028012;28;20714;-80
2021/03/17 11:07:51;;;;;;;2.47;2.38;;;;;;;;;;5021692;28;20034;-81
2021/03/17 11:10:36;;;;;;;1.33;1.33;;;;;;;;;;5047981;28;20045;-80
2021/03/17 11:13:09;;;;;;;1.42;1.42;;;;;;;;;;5025755;28;20129;-80
2021/03/17 11:15:42;;;;;;;1.80;1.80;;;;;;;;;;5031287;28;20083;-80
2021/03/17 11:18:09;;;;;;;1.60;1.60;;;;;;;;;;5045861;28;20051;-80
2021/03/17 11:20:40;;;;;;;1.58;1.48;;;;;;;;;;5043322;28;20052;-80
2021/03/17 11:23:17;;;;;;;1.40;1.40;;;;;;;;;;5051003;28;20029;-80
2021/03/17 11:25:44;;;;;;;1.40;1.40;;;;;;;;;;5046797;28;20096;-80
2021/03/17 11:28:13;;;;;;;1.50;1.40;;;;;;;;;;5025343;28;20056;-80
2021/03/17 11:30:44;;;;;;;1.30;1.30;;;;;;;;;;5030665;28;20041;-80
2021/03/17 11:33:12;;;;;;;1.33;1.33;;;;;;;;;;5044742;28;20575;-80
2021/03/17 11:35:40;;;;;;;1.63;1.63;;;;;;;;;;5050654;28;20119;-80
2021/03/17 11:38:07;;;;;;;1.45;1.45;;;;;;;;;;5025983;28;20049;-80
2021/03/17 11:40:35;;;;;;;2.03;2.03;;;;;;;;;;5012086;28;20041;-81
2021/03/17 11:43:06;;;;;;;1.20;1.20;;;;;;;;;;5032140;28;20036;-80
2021/03/17 11:45:33;;;;;;;1.40;1.40;;;;;;;;;;5045431;28;20037;-80
2021/03/17 11:48:00;;;;;;;1.20;1.20;;;;;;;;;;5049923;28;20115;-80
2021/03/17 11:50:27;;;;;;;1.90;1.90;;;;;;;;;;5032276;28;20045;-80
2021/03/17 11:52:54;;;;;;;1.20;1.20;;;;;;;;;;5027317;28;20478;-80
2021/03/17 11:55:22;;;;;;;2.40;2.40;;;;;;;;;;5050933;28;20589;-80
2021/03/17 11:57:49;;;;;;;2.13;2.00;;;;;;;;;;5043254;28;20072;-80
2021/03/17 12:00:16;;;;;;;1.00;1.00;;;;;;;;;;5050571;28;20106;-80
2021/03/17 12:02:45;;;;;;;1.10;1.10;;;;;;;;;;5048028;28;20124;-81
2021/03/17 12:05:13;;;;;;;1.10;1.10;;;;;;;;;;5028468;28;20422;-81
2021/03/17 12:07:48;;;;;;;1.30;1.30;;;;;;;;;;5050044;28;20037;-80
2021/03/17 12:10:16;;;;;;;1.90;1.50;;;;;;;;;;5044900;28;20041;-80
2021/03/17 12:12:43;;;;;;;1.20;1.20;;;;;;;;;;5026697;28;20494;-80
2021/03/17 12:15:15;;;;;;;1.00;1.00;;;;;;;;;;5047870;28;20045;-80
2021/03/17 12:17:43;;;;;;;1.10;1.10;;;;;;;;;;5044629;28;20270;-80
2021/03/17 12:20:11;;;;;;;1.33;1.33;;;;;;;;;;5029234;28;20053;-80
2021/03/17 12:22:38;;;;;;;1.10;1.10;;;;;;;;;;5050637;28;20090;-80
2021/03/17 12:25:07;;;;;;;2.28;1.20;;;;;;;;;;5051168;28;20037;-80
2021/03/17 12:27:34;;;;;;;1.02;1.02;;;;;;;;;;5054571;28;20044;-80
2021/03/17 12:30:02;;;;;;;1.13;1.13;;;;;;;;;;5047988;28;20041;-80
2021/03/17 12:32:29;;;;;;;1.00;1.00;;;;;;;;;;5023292;28;20049;-80
2021/03/17 12:34:56;;;;;;;2.05;1.95;;;;;;;;;;5033096;28;20047;-80
2021/03/17 12:37:24;;;;;;;1.15;1.10;;;;;;;;;;5049829;28;20060;-80
2021/03/17 12:39:54;;;;;;;9.40;8.48;;;;;;;;;;5054633;28;20485;-76
2021/03/17 12:42:21;;;;;;;12.73;11.52;;;;;;;;;;5022009;28;20046;-77
2021/03/17 12:44:48;;;;;;;1.10;1.10;;;;;;;;;;5040161;28;20459;-77
2021/03/17 12:47:16;;;;;;;1.25;1.00;;;;;;;;;;5044128;28;20037;-77
2021/03/17 12:49:43;;;;;;;3.05;2.92;;;;;;;;;;5012215;28;20490;-77
2021/03/17 12:52:11;;;;;;;0.90;0.90;;;;;;;;;;5031795;28;20076;-77
2021/03/17 12:54:42;;;;;;;1.20;1.10;;;;;;;;;;5045699;28;20041;-77
2021/03/17 12:57:09;;;;;;;3.40;3.30;;;;;;;;;;5047403;28;20458;-77
2021/03/17 12:59:36;;;;;;;1.10;1.10;;;;;;;;;;5030591;28;20073;-77
2021/03/17 13:02:07;;;;;;;1.27;1.27;;;;;;;;;;5025036;28;20053;-77
2021/03/17 13:04:34;;;;;;;1.00;1.00;;;;;;;;;;5034715;28;20056;-77
2021/03/17 13:07:03;;;;;;;1.00;1.00;;;;;;;;;;5033192;28;20120;-77
2021/03/17 13:09:30;;;;;;;1.20;1.20;;;;;;;;;;5050674;28;20041;-77
2021/03/17 13:11:57;;;;;;;1.10;1.10;;;;;;;;;;5053120;28;20080;-77
2021/03/17 13:14:25;;;;;;;1.20;1.20;;;;;;;;;;5028267;28;20049;-77
2021/03/17 13:16:52;;;;;;;1.30;1.30;;;;;;;;;;5051620;28;20045;-77
2021/03/17 13:19:20;;;;;;;1.27;1.27;;;;;;;;;;5047380;28;20040;-77
2021/03/17 13:21:51;;;;;;;1.30;1.30;;;;;;;;;;5025348;28;20037;-77
2021/03/17 13:24:19;;;;;;;1.10;1.10;;;;;;;;;;5044212;28;20040;-77
2021/03/17 13:26:46;;;;;;;1.65;1.65;;;;;;;;;;5031569;28;20132;-77
2021/03/17 13:29:14;;;;;;;1.20;1.20;;;;;;;;;;5053014;28;20062;-77
2021/03/17 13:31:41;;;;;;;1.20;1.20;;;;;;;;;;5050627;28;20049;-77
2021/03/17 13:34:08;;;;;;;1.30;1.30;;;;;;;;;;5031451;28;20437;-77
2021/03/17 13:36:35;;;;;;;1.25;1.25;;;;;;;;;;5047776;28;20041;-77
2021/03/17 13:39:04;;;;;;;1.80;1.80;;;;;;;;;;5049695;28;20056;-77
2021/03/17 13:41:32;;;;;;;2.05;1.20;;;;;;;;;;5048384;28;20356;-77
2021/03/17 13:44:00;;;;;;;1.45;1.35;;;;;;;;;;5049401;28;20044;-77
2021/03/17 13:46:27;;;;;;;1.35;1.35;;;;;;;;;;5029066;28;20035;-77
2021/03/17 13:48:54;;;;;;;2.00;1.60;;;;;;;;;;5054430;28;20025;-77
2021/03/17 13:51:22;;;;;;;2.15;1.23;;;;;;;;;;5017952;28;20041;-78
2021/03/17 13:53:49;;;;;;;2.25;1.10;;;;;;;;;;5031781;28;20052;-78
2021/03/17 13:56:17;;;;;;;1.10;1.10;;;;;;;;;;5032615;28;20433;-78
2021/03/17 13:58:44;;;;;;;1.10;1.10;;;;;;;;;;5044602;28;20083;-78
2021/03/17 14:01:11;;;;;;;1.50;1.50;;;;;;;;;;5032468;28;20049;-78
2021/03/17 14:03:38;;;;;;;2.30;1.20;;;;;;;;;;5030204;28;20656;-78
2021/03/17 14:06:07;;;;;;;1.20;1.20;;;;;;;;;;5029416;28;20041;-78
2021/03/17 14:08:34;;;;;;;1.10;1.10;;;;;;;;;;5051608;28;20033;-78
2021/03/17 14:11:02;;;;;;;1.17;1.17;;;;;;;;;;5046024;28;20037;-78
2021/03/17 14:13:29;;;;;;;0.90;0.90;;;;;;;;;;5021309;28;20119;-78
2021/03/17 14:15:56;;;;;;;1.10;1.10;;;;;;;;;;5047974;28;20114;-78
2021/03/17 14:18:24;;;;;;;1.00;1.00;;;;;;;;;;5015491;28;20051;-78
2021/03/17 14:20:51;;;;;;;1.30;1.30;;;;;;;;;;5033152;28;20562;-78
2021/03/17 14:23:18;;;;;;;1.52;1.10;;;;;;;;;;5013182;28;20049;-78
2021/03/17 14:25:45;;;;;;;1.00;1.00;;;;;;;;;;5047866;28;20029;-78
2021/03/17 14:28:12;;;;;;;1.88;1.88;;;;;;;;;;5031155;28;20049;-78
2021/03/17 14:30:40;;;;;;;1.92;1.73;;;;;;;;;;5027308;28;20041;-78
2021/03/17 14:33:07;;;;;;;1.10;1.10;;;;;;;;;;5034363;28;20041;-78
2021/03/17 14:35:39;;;;;;;1.45;1.00;;;;;;;;;;5028877;28;20095;-78
2021/03/17 14:38:06;;;;;;;3.17;3.08;;;;;;;;;;5013665;28;20033;-78
2021/03/17 14:40:33;;;;;;;1.67;1.67;;;;;;;;;;5049761;28;20033;-78
2021/03/17 14:43:01;;;;;;;1.35;1.35;;;;;;;;;;5046634;28;20041;-78